Flight Track Log - Related Links

Times and Time Zones

All times are in EDT time to prevent confusion due to time zone crossing. See the EJA929 flight status page for this flight to view local times or setup timezone preferences in your user account.

Time Position Orientation Groundspeed Altitude Reporting Facility
EDT Latitude Longitude Course Direction KTS MPH feet Rate Location/Type
Fri 10:13:05 AM 32.8333 -96.8333 140° Southeast 183 211 1,600  Level Dallas / Fort Worth TRACON
Fri 10:13:38 AM 32.8167 -96.8167 140° Southeast 207 238 3,100 2,452 Climbing Dallas / Fort Worth TRACON
Fri 10:14:38 AM 32.7667 -96.7500 132° Southeast 247 284 5,400 2,566 Climbing Dallas / Fort Worth TRACON
Fri 10:16:17 AM 32.6542 -96.7447 178° South 264 304 9,900 1,736 Climbing Fort Worth Center
Fri 10:17:17 AM 32.5583 -96.7972 205° Southwest 347 399 10,000 900 Climbing Fort Worth Center
Fri 10:18:17 AM 32.4564 -96.8494 203° Southwest 388 447 11,700 2,150 Climbing Fort Worth Center
Fri 10:19:17 AM 32.3583 -96.8994 203° Southwest 397 457 14,300 1,950 Climbing Fort Worth Center
Fri 10:20:17 AM 32.2583 -96.9344 196° South 392 451 15,600 1,400 Climbing Fort Worth Center
Fri 10:21:17 AM 32.1478 -96.9203 174° South 381 438 17,100 1,500 Climbing Fort Worth Center
Fri 10:22:17 AM 32.0369 -96.8986 171° South 392 451 18,600 1,350 Climbing Fort Worth Center
Fri 10:23:17 AM 31.9367 -96.8822 172° South 398 458 19,800 1,150 Climbing Fort Worth Center
Fri 10:24:17 AM 31.8217 -96.8583 170° South 414 476 20,900 600 Climbing Fort Worth Center
Fri 10:25:17 AM 31.6983 -96.8372 172° South 439 505 21,000 42 Climbing Fort Worth Center
Fri 10:26:39 AM 31.5325 -96.8094 172° South 450 518 21,000  Level Houston Center
Fri 10:27:41 AM 31.4161 -96.7675 163° South 439 505 21,000  Level Houston Center
Fri 10:28:43 AM 31.3022 -96.7142 158° South 436 502 21,000  Level Houston Center
Fri 10:29:45 AM 31.1661 -96.6500 158° South 441 507 21,000  Level Houston Center
Fri 10:30:47 AM 31.0492 -96.5956 158° South 443 510 21,000  Level Houston Center
Fri 10:31:49 AM 30.9322 -96.5408 158° South 445 512 21,000  Level Houston Center
Fri 10:32:51 AM 30.8139 -96.4864 158° South 448 516 21,000 -48 Level Houston Center
Fri 10:33:53 AM 30.6953 -96.4319 158° South 451 519 20,900 -1,200 Descending Houston Center
Fri 10:34:56 AM 30.5781 -96.3750 157° South 450 518 18,500 -2,304 Descending Houston Center
Fri 10:35:58 AM 30.4600 -96.3228 159° South 449 517 16,100 -2,274 Descending Houston Center
Fri 10:37:00 AM 30.3492 -96.2711 158° South 428 493 13,800 -2,419 Descending Houston Center
Fri 10:38:02 AM 30.2231 -96.2142 159° South 411 473 11,100 -1,500 Descending Houston Center
Fri 10:39:04 AM 30.1308 -96.1661 156° South 398 458 10,700 -532 Descending Houston Center
Fri 10:40:06 AM 30.0200 -96.0939 151° Southeast 389 448 10,000 -683 Descending Houston Center
Fri 10:41:07 AM 29.9786 -96.0047 118° Southeast 288 331 9,300 -1,721 Descending Houston Center
Fri 10:42:08 AM 29.9522 -95.9183 109° East 276 318 6,500 -1,574 Descending Houston Center
Fri 10:43:09 AM 29.9264 -95.8394 111° Southeast 267 307 6,100 -238 Descending Houston Center
Fri 10:44:14 AM 29.9008 -95.7603 110° East 265 305 6,000 -47 Descending Houston Center
Fri 10:45:16 AM 29.8753 -95.6806 110° East 264 304 6,000 -96 Level Houston Center
Fri 10:46:19 AM 29.8475 -95.5994 112° Southeast 270 311 5,800 -912 Descending Houston Center
Fri 10:47:21 AM 29.8181 -95.5047 110° East 264 304 4,100 -879 Descending Houston Center
Fri 10:48:15 AM 29.7886 -95.4486 121° Southeast 225 259 4,100 -730 Level Houston Center
Fri 10:49:16 AM 29.7439 -95.3964 135° Southeast 190 219 2,700 -1,180 Descending Houston Center
Fri 10:50:17 AM 29.7064 -95.3528 135° Southeast 195 224 1,700 -885 Descending Houston Center
Fri 10:51:18 AM 29.6756 -95.3156 134° Southeast 145 167 900 -716 Descending Houston Center
Fri 10:52:31 AM 29.6431 -95.2756 133° Southeast 165 190 100 -658 Descending Houston Center
Fri 10:54:00 AM 29.6454 -95.2789 124° Southeast  Level Estimated

Login

Don't have an account? Register now (free) for customized features, flight alerts, and more!